sensor_id;sensor_type;location;lat;lon;timestamp;P1;durP1;ratioP1;P2;durP2;ratioP2
37771;SDS011;23610;59.380;24.642;2022-10-22T00:03:54;6.07;;;3.70;;
37771;SDS011;23610;59.380;24.642;2022-10-22T00:08:57;4.88;;;2.67;;
37771;SDS011;23610;59.380;24.642;2022-10-22T00:14:00;4.45;;;3.13;;
37771;SDS011;23610;59.380;24.642;2022-10-22T00:19:03;3.72;;;2.90;;
37771;SDS011;23610;59.380;24.642;2022-10-22T00:24:05;9.27;;;3.80;;
37771;SDS011;23610;59.380;24.642;2022-10-22T00:29:08;9.90;;;5.20;;
37771;SDS011;23610;59.380;24.642;2022-10-22T00:34:11;4.82;;;2.83;;
37771;SDS011;23610;59.380;24.642;2022-10-22T00:39:15;10.27;;;3.40;;
37771;SDS011;23610;59.380;24.642;2022-10-22T00:50:19;19.55;;;12.85;;
37771;SDS011;23610;59.380;24.642;2022-10-22T00:55:27;18.65;;;10.38;;
37771;SDS011;23610;59.380;24.642;2022-10-22T01:00:31;6.97;;;4.03;;
37771;SDS011;23610;59.380;24.642;2022-10-22T01:06:17;3.75;;;3.08;;
37771;SDS011;23610;59.380;24.642;2022-10-22T01:11:12;4.80;;;3.80;;
37771;SDS011;23610;59.380;24.642;2022-10-22T01:16:33;3.73;;;2.73;;
37771;SDS011;23610;59.380;24.642;2022-10-22T01:32:55;5.38;;;2.65;;
37771;SDS011;23610;59.380;24.642;2022-10-22T01:38:03;5.20;;;2.55;;
37771;SDS011;23610;59.380;24.642;2022-10-22T01:43:11;4.50;;;3.20;;
37771;SDS011;23610;59.380;24.642;2022-10-22T01:59:51;3.47;;;2.78;;
37771;SDS011;23610;59.380;24.642;2022-10-22T02:10:15;5.00;;;2.78;;
37771;SDS011;23610;59.380;24.642;2022-10-22T02:15:19;7.57;;;3.15;;
37771;SDS011;23610;59.380;24.642;2022-10-22T02:20:28;6.95;;;3.10;;
37771;SDS011;23610;59.380;24.642;2022-10-22T02:25:34;3.47;;;3.03;;
37771;SDS011;23610;59.380;24.642;2022-10-22T02:30:42;4.80;;;3.83;;
37771;SDS011;23610;59.380;24.642;2022-10-22T02:35:48;3.53;;;3.22;;
37771;SDS011;23610;59.380;24.642;2022-10-22T02:40:52;3.72;;;3.25;;
37771;SDS011;23610;59.380;24.642;2022-10-22T02:45:54;7.18;;;3.95;;
37771;SDS011;23610;59.380;24.642;2022-10-22T02:50:57;4.40;;;3.58;;
37771;SDS011;23610;59.380;24.642;2022-10-22T02:56:00;4.20;;;3.40;;
37771;SDS011;23610;59.380;24.642;2022-10-22T03:01:02;6.10;;;3.70;;
37771;SDS011;23610;59.380;24.642;2022-10-22T03:06:05;5.57;;;3.97;;
37771;SDS011;23610;59.380;24.642;2022-10-22T03:11:08;6.47;;;3.60;;
37771;SDS011;23610;59.380;24.642;2022-10-22T03:16:11;7.50;;;4.32;;
37771;SDS011;23610;59.380;24.642;2022-10-22T03:26:42;14.82;;;7.18;;
37771;SDS011;23610;59.380;24.642;2022-10-22T03:31:46;11.32;;;6.07;;
37771;SDS011;23610;59.380;24.642;2022-10-22T03:36:50;7.82;;;5.93;;
37771;SDS011;23610;59.380;24.642;2022-10-22T03:41:52;6.15;;;5.22;;
37771;SDS011;23610;59.380;24.642;2022-10-22T03:46:55;5.57;;;4.30;;
37771;SDS011;23610;59.380;24.642;2022-10-22T03:52:06;5.30;;;4.32;;
37771;SDS011;23610;59.380;24.642;2022-10-22T03:57:14;12.52;;;4.43;;
37771;SDS011;23610;59.380;24.642;2022-10-22T04:02:16;7.55;;;5.22;;
37771;SDS011;23610;59.380;24.642;2022-10-22T04:07:19;5.68;;;4.47;;
37771;SDS011;23610;59.380;24.642;2022-10-22T04:12:22;7.65;;;4.18;;
37771;SDS011;23610;59.380;24.642;2022-10-22T04:17:25;10.48;;;4.13;;
37771;SDS011;23610;59.380;24.642;2022-10-22T04:22:33;5.03;;;3.40;;
37771;SDS011;23610;59.380;24.642;2022-10-22T04:27:36;4.35;;;3.45;;
37771;SDS011;23610;59.380;24.642;2022-10-22T04:32:39;9.65;;;4.40;;
37771;SDS011;23610;59.380;24.642;2022-10-22T04:37:42;5.40;;;4.13;;
37771;SDS011;23610;59.380;24.642;2022-10-22T04:42:44;6.82;;;4.63;;
37771;SDS011;23610;59.380;24.642;2022-10-22T04:47:47;5.40;;;3.80;;
37771;SDS011;23610;59.380;24.642;2022-10-22T04:52:49;6.43;;;3.85;;
37771;SDS011;23610;59.380;24.642;2022-10-22T04:57:52;8.90;;;3.55;;
37771;SDS011;23610;59.380;24.642;2022-10-22T05:02:54;8.68;;;4.47;;
37771;SDS011;23610;59.380;24.642;2022-10-22T05:07:57;18.13;;;9.40;;
37771;SDS011;23610;59.380;24.642;2022-10-22T05:12:59;15.98;;;10.32;;
37771;SDS011;23610;59.380;24.642;2022-10-22T05:18:02;18.52;;;10.13;;
37771;SDS011;23610;59.380;24.642;2022-10-22T05:23:05;16.63;;;8.18;;
37771;SDS011;23610;59.380;24.642;2022-10-22T05:28:08;17.90;;;10.65;;
37771;SDS011;23610;59.380;24.642;2022-10-22T05:33:10;15.90;;;10.40;;
37771;SDS011;23610;59.380;24.642;2022-10-22T05:38:13;14.90;;;9.25;;
37771;SDS011;23610;59.380;24.642;2022-10-22T05:43:16;9.45;;;6.47;;
37771;SDS011;23610;59.380;24.642;2022-10-22T05:48:18;6.20;;;5.18;;
37771;SDS011;23610;59.380;24.642;2022-10-22T05:53:22;7.07;;;5.35;;
37771;SDS011;23610;59.380;24.642;2022-10-22T05:58:25;5.43;;;3.85;;
37771;SDS011;23610;59.380;24.642;2022-10-22T06:03:27;4.70;;;4.13;;
37771;SDS011;23610;59.380;24.642;2022-10-22T06:08:32;14.00;;;4.67;;
37771;SDS011;23610;59.380;24.642;2022-10-22T06:13:34;9.85;;;5.28;;
37771;SDS011;23610;59.380;24.642;2022-10-22T06:18:37;7.15;;;5.00;;
37771;SDS011;23610;59.380;24.642;2022-10-22T06:23:41;5.53;;;3.50;;
37771;SDS011;23610;59.380;24.642;2022-10-22T06:28:44;9.35;;;3.80;;
37771;SDS011;23610;59.380;24.642;2022-10-22T06:33:46;4.35;;;3.15;;
37771;SDS011;23610;59.380;24.642;2022-10-22T06:38:53;7.80;;;3.13;;
37771;SDS011;23610;59.380;24.642;2022-10-22T06:43:56;4.95;;;3.33;;
37771;SDS011;23610;59.380;24.642;2022-10-22T06:49:01;4.88;;;3.45;;
37771;SDS011;23610;59.380;24.642;2022-10-22T06:54:06;3.65;;;3.17;;
37771;SDS011;23610;59.380;24.642;2022-10-22T06:59:09;4.47;;;3.42;;
37771;SDS011;23610;59.380;24.642;2022-10-22T07:04:11;4.63;;;3.42;;
37771;SDS011;23610;59.380;24.642;2022-10-22T07:09:14;3.45;;;2.95;;
37771;SDS011;23610;59.380;24.642;2022-10-22T07:14:16;5.78;;;3.05;;
37771;SDS011;23610;59.380;24.642;2022-10-22T07:19:19;9.50;;;4.28;;
37771;SDS011;23610;59.380;24.642;2022-10-22T07:24:22;8.00;;;4.63;;
37771;SDS011;23610;59.380;24.642;2022-10-22T07:29:24;7.70;;;5.32;;
37771;SDS011;23610;59.380;24.642;2022-10-22T07:34:29;5.07;;;3.00;;
37771;SDS011;23610;59.380;24.642;2022-10-22T07:39:32;9.70;;;5.18;;
37771;SDS011;23610;59.380;24.642;2022-10-22T07:44:34;3.38;;;1.45;;
37771;SDS011;23610;59.380;24.642;2022-10-22T07:49:37;2.95;;;2.17;;
37771;SDS011;23610;59.380;24.642;2022-10-22T07:54:39;3.92;;;2.45;;
37771;SDS011;23610;59.380;24.642;2022-10-22T07:59:44;3.70;;;2.45;;
37771;SDS011;23610;59.380;24.642;2022-10-22T08:04:58;2.95;;;2.15;;
37771;SDS011;23610;59.380;24.642;2022-10-22T08:10:04;4.20;;;1.80;;
37771;SDS011;23610;59.380;24.642;2022-10-22T08:15:08;4.97;;;2.47;;
37771;SDS011;23610;59.380;24.642;2022-10-22T08:20:11;2.78;;;1.48;;
37771;SDS011;23610;59.380;24.642;2022-10-22T08:25:14;2.35;;;1.65;;
37771;SDS011;23610;59.380;24.642;2022-10-22T08:30:21;2.73;;;1.40;;
37771;SDS011;23610;59.380;24.642;2022-10-22T08:35:30;3.30;;;1.30;;
37771;SDS011;23610;59.380;24.642;2022-10-22T08:41:08;3.50;;;1.98;;
37771;SDS011;23610;59.380;24.642;2022-10-22T08:52:06;20.45;;;12.27;;
37771;SDS011;23610;59.380;24.642;2022-10-22T09:08:53;8.20;;;2.00;;
37771;SDS011;23610;59.380;24.642;2022-10-22T09:14:05;9.07;;;3.03;;
37771;SDS011;23610;59.380;24.642;2022-10-22T09:31:10;8.63;;;2.90;;
37771;SDS011;23610;59.380;24.642;2022-10-22T09:42:04;2.65;;;1.95;;
37771;SDS011;23610;59.380;24.642;2022-10-22T09:58:13;5.85;;;2.63;;
37771;SDS011;23610;59.380;24.642;2022-10-22T10:03:32;4.15;;;1.80;;
37771;SDS011;23610;59.380;24.642;2022-10-22T10:30:10;3.38;;;2.13;;
37771;SDS011;23610;59.380;24.642;2022-10-22T10:35:57;4.90;;;2.63;;
37771;SDS011;23610;59.380;24.642;2022-10-22T10:48:16;6.03;;;2.35;;
37771;SDS011;23610;59.380;24.642;2022-10-22T11:10:55;9.00;;;3.33;;
37771;SDS011;23610;59.380;24.642;2022-10-22T11:16:11;2.85;;;1.92;;
37771;SDS011;23610;59.380;24.642;2022-10-22T11:33:11;5.85;;;2.13;;
37771;SDS011;23610;59.380;24.642;2022-10-22T11:38:32;4.82;;;2.90;;
37771;SDS011;23610;59.380;24.642;2022-10-22T11:43:58;3.67;;;2.08;;
37771;SDS011;23610;59.380;24.642;2022-10-22T12:23:10;3.72;;;2.75;;
37771;SDS011;23610;59.380;24.642;2022-10-22T12:28:14;4.43;;;1.60;;
37771;SDS011;23610;59.380;24.642;2022-10-22T12:33:20;5.05;;;1.33;;
37771;SDS011;23610;59.380;24.642;2022-10-22T12:38:39;3.63;;;1.58;;
37771;SDS011;23610;59.380;24.642;2022-10-22T12:45:06;2.97;;;1.83;;
37771;SDS011;23610;59.380;24.642;2022-10-22T12:50:14;5.63;;;1.90;;
37771;SDS011;23610;59.380;24.642;2022-10-22T12:55:39;7.38;;;2.50;;
37771;SDS011;23610;59.380;24.642;2022-10-22T13:01:10;9.27;;;3.75;;
37771;SDS011;23610;59.380;24.642;2022-10-22T13:17:39;3.65;;;2.03;;
37771;SDS011;23610;59.380;24.642;2022-10-22T13:23:18;4.90;;;2.67;;
37771;SDS011;23610;59.380;24.642;2022-10-22T13:28:39;5.00;;;2.72;;
37771;SDS011;23610;59.380;24.642;2022-10-22T13:39:20;2.45;;;2.17;;
37771;SDS011;23610;59.380;24.642;2022-10-22T13:44:38;2.75;;;1.83;;
37771;SDS011;23610;59.380;24.642;2022-10-22T13:50:39;2.05;;;1.75;;
37771;SDS011;23610;59.380;24.642;2022-10-22T13:56:18;2.42;;;1.70;;
37771;SDS011;23610;59.380;24.642;2022-10-22T14:01:40;12.60;;;4.05;;
37771;SDS011;23610;59.380;24.642;2022-10-22T14:07:15;11.55;;;4.25;;
37771;SDS011;23610;59.380;24.642;2022-10-22T14:12:18;14.77;;;6.50;;
37771;SDS011;23610;59.380;24.642;2022-10-22T14:17:37;23.23;;;9.35;;
37771;SDS011;23610;59.380;24.642;2022-10-22T14:23:37;27.02;;;13.43;;
37771;SDS011;23610;59.380;24.642;2022-10-22T14:29:09;57.38;;;26.17;;
37771;SDS011;23610;59.380;24.642;2022-10-22T14:34:13;41.33;;;21.17;;
37771;SDS011;23610;59.380;24.642;2022-10-22T14:39:16;23.20;;;11.90;;
37771;SDS011;23610;59.380;24.642;2022-10-22T14:44:19;12.55;;;6.97;;
37771;SDS011;23610;59.380;24.642;2022-10-22T14:49:22;13.55;;;5.53;;
37771;SDS011;23610;59.380;24.642;2022-10-22T14:54:42;10.13;;;5.85;;
37771;SDS011;23610;59.380;24.642;2022-10-22T15:00:17;22.00;;;11.05;;
37771;SDS011;23610;59.380;24.642;2022-10-22T15:05:21;43.08;;;17.35;;
37771;SDS011;23610;59.380;24.642;2022-10-22T15:11:08;73.95;;;29.58;;
37771;SDS011;23610;59.380;24.642;2022-10-22T15:16:13;76.55;;;31.52;;
37771;SDS011;23610;59.380;24.642;2022-10-22T15:21:18;67.10;;;31.20;;
37771;SDS011;23610;59.380;24.642;2022-10-22T15:26:22;55.58;;;25.08;;
37771;SDS011;23610;59.380;24.642;2022-10-22T15:37:11;135.63;;;58.22;;
37771;SDS011;23610;59.380;24.642;2022-10-22T15:42:15;187.38;;;78.80;;
37771;SDS011;23610;59.380;24.642;2022-10-22T15:47:19;218.25;;;92.72;;
37771;SDS011;23610;59.380;24.642;2022-10-22T15:52:21;95.20;;;43.30;;
37771;SDS011;23610;59.380;24.642;2022-10-22T16:38:19;57.47;;;28.13;;
37771;SDS011;23610;59.380;24.642;2022-10-22T16:51:08;31.00;;;17.02;;
37771;SDS011;23610;59.380;24.642;2022-10-22T16:56:14;28.27;;;14.55;;
37771;SDS011;23610;59.380;24.642;2022-10-22T17:01:18;32.15;;;15.95;;
37771;SDS011;23610;59.380;24.642;2022-10-22T17:06:23;25.20;;;13.15;;
37771;SDS011;23610;59.380;24.642;2022-10-22T17:11:26;28.77;;;14.50;;
37771;SDS011;23610;59.380;24.642;2022-10-22T17:16:35;34.75;;;17.77;;
37771;SDS011;23610;59.380;24.642;2022-10-22T17:21:37;27.85;;;16.00;;
37771;SDS011;23610;59.380;24.642;2022-10-22T17:26:40;27.60;;;15.30;;
37771;SDS011;23610;59.380;24.642;2022-10-22T17:31:43;24.50;;;13.63;;
37771;SDS011;23610;59.380;24.642;2022-10-22T17:36:47;21.30;;;13.25;;
37771;SDS011;23610;59.380;24.642;2022-10-22T17:41:50;23.52;;;13.90;;
37771;SDS011;23610;59.380;24.642;2022-10-22T17:46:54;21.73;;;12.77;;
37771;SDS011;23610;59.380;24.642;2022-10-22T17:51:57;24.83;;;16.55;;
37771;SDS011;23610;59.380;24.642;2022-10-22T17:57:01;22.50;;;15.23;;
37771;SDS011;23610;59.380;24.642;2022-10-22T18:02:05;30.67;;;16.23;;
37771;SDS011;23610;59.380;24.642;2022-10-22T18:07:10;22.20;;;15.35;;
37771;SDS011;23610;59.380;24.642;2022-10-22T18:12:14;22.40;;;15.32;;
37771;SDS011;23610;59.380;24.642;2022-10-22T18:22:21;19.80;;;11.45;;
37771;SDS011;23610;59.380;24.642;2022-10-22T18:27:25;17.83;;;11.35;;
37771;SDS011;23610;59.380;24.642;2022-10-22T18:32:28;15.85;;;10.55;;
37771;SDS011;23610;59.380;24.642;2022-10-22T18:37:34;15.70;;;10.73;;
37771;SDS011;23610;59.380;24.642;2022-10-22T18:42:39;21.90;;;9.87;;
37771;SDS011;23610;59.380;24.642;2022-10-22T18:47:42;16.35;;;9.65;;
37771;SDS011;23610;59.380;24.642;2022-10-22T18:52:44;23.80;;;12.10;;
37771;SDS011;23610;59.380;24.642;2022-10-22T18:57:47;20.30;;;10.20;;
37771;SDS011;23610;59.380;24.642;2022-10-22T19:02:51;19.00;;;10.90;;
37771;SDS011;23610;59.380;24.642;2022-10-22T19:07:56;17.60;;;9.52;;
37771;SDS011;23610;59.380;24.642;2022-10-22T19:12:59;15.65;;;8.95;;
37771;SDS011;23610;59.380;24.642;2022-10-22T19:18:03;23.30;;;10.90;;
37771;SDS011;23610;59.380;24.642;2022-10-22T19:23:06;24.38;;;13.85;;
37771;SDS011;23610;59.380;24.642;2022-10-22T19:28:09;21.50;;;13.98;;
37771;SDS011;23610;59.380;24.642;2022-10-22T19:33:13;16.65;;;10.07;;
37771;SDS011;23610;59.380;24.642;2022-10-22T19:38:17;18.37;;;11.63;;
37771;SDS011;23610;59.380;24.642;2022-10-22T19:43:20;18.55;;;9.90;;
37771;SDS011;23610;59.380;24.642;2022-10-22T19:48:24;15.10;;;10.38;;
37771;SDS011;23610;59.380;24.642;2022-10-22T19:53:30;19.65;;;9.63;;
37771;SDS011;23610;59.380;24.642;2022-10-22T19:58:35;21.85;;;11.70;;
37771;SDS011;23610;59.380;24.642;2022-10-22T20:03:39;19.92;;;11.70;;
37771;SDS011;23610;59.380;24.642;2022-10-22T20:08:42;17.13;;;10.05;;
37771;SDS011;23610;59.380;24.642;2022-10-22T20:13:45;17.48;;;9.05;;
37771;SDS011;23610;59.380;24.642;2022-10-22T20:18:52;16.63;;;9.82;;
37771;SDS011;23610;59.380;24.642;2022-10-22T20:24:04;15.77;;;9.80;;
37771;SDS011;23610;59.380;24.642;2022-10-22T20:29:07;15.20;;;9.45;;
37771;SDS011;23610;59.380;24.642;2022-10-22T20:34:11;15.35;;;10.45;;
37771;SDS011;23610;59.380;24.642;2022-10-22T20:39:15;16.77;;;9.15;;
37771;SDS011;23610;59.380;24.642;2022-10-22T20:44:20;16.83;;;8.68;;
37771;SDS011;23610;59.380;24.642;2022-10-22T20:49:23;16.52;;;8.63;;
37771;SDS011;23610;59.380;24.642;2022-10-22T20:54:27;25.10;;;10.80;;
37771;SDS011;23610;59.380;24.642;2022-10-22T20:59:32;38.70;;;12.73;;
37771;SDS011;23610;59.380;24.642;2022-10-22T21:04:36;28.17;;;10.63;;
37771;SDS011;23610;59.380;24.642;2022-10-22T21:09:43;21.05;;;8.48;;
37771;SDS011;23610;59.380;24.642;2022-10-22T21:14:45;15.88;;;7.88;;
37771;SDS011;23610;59.380;24.642;2022-10-22T21:19:48;15.80;;;7.57;;
37771;SDS011;23610;59.380;24.642;2022-10-22T21:24:50;17.20;;;9.50;;
37771;SDS011;23610;59.380;24.642;2022-10-22T21:29:53;22.15;;;9.15;;
37771;SDS011;23610;59.380;24.642;2022-10-22T21:34:55;17.45;;;7.03;;
37771;SDS011;23610;59.380;24.642;2022-10-22T21:39:59;16.58;;;7.43;;
37771;SDS011;23610;59.380;24.642;2022-10-22T21:45:05;14.45;;;6.88;;
37771;SDS011;23610;59.380;24.642;2022-10-22T21:50:15;18.77;;;9.73;;
37771;SDS011;23610;59.380;24.642;2022-10-22T21:55:19;21.33;;;9.15;;
37771;SDS011;23610;59.380;24.642;2022-10-22T22:00:23;16.92;;;8.68;;
37771;SDS011;23610;59.380;24.642;2022-10-22T22:05:27;22.27;;;8.65;;
37771;SDS011;23610;59.380;24.642;2022-10-22T22:10:31;16.77;;;7.10;;
37771;SDS011;23610;59.380;24.642;2022-10-22T22:15:34;9.82;;;5.75;;
37771;SDS011;23610;59.380;24.642;2022-10-22T22:20:38;11.77;;;5.03;;
37771;SDS011;23610;59.380;24.642;2022-10-22T22:25:41;6.03;;;3.83;;
37771;SDS011;23610;59.380;24.642;2022-10-22T22:30:43;10.18;;;4.88;;
37771;SDS011;23610;59.380;24.642;2022-10-22T22:35:46;7.97;;;4.47;;
37771;SDS011;23610;59.380;24.642;2022-10-22T22:40:48;8.35;;;4.68;;
37771;SDS011;23610;59.380;24.642;2022-10-22T22:46:01;7.13;;;4.55;;
37771;SDS011;23610;59.380;24.642;2022-10-22T22:51:09;8.50;;;4.80;;
37771;SDS011;23610;59.380;24.642;2022-10-22T22:56:14;12.40;;;6.68;;
37771;SDS011;23610;59.380;24.642;2022-10-22T23:01:24;14.07;;;6.18;;
37771;SDS011;23610;59.380;24.642;2022-10-22T23:06:33;16.90;;;7.70;;
37771;SDS011;23610;59.380;24.642;2022-10-22T23:11:38;20.92;;;10.35;;
37771;SDS011;23610;59.380;24.642;2022-10-22T23:16:43;20.73;;;8.90;;
37771;SDS011;23610;59.380;24.642;2022-10-22T23:21:50;15.77;;;7.15;;
37771;SDS011;23610;59.380;24.642;2022-10-22T23:26:55;10.32;;;5.22;;
37771;SDS011;23610;59.380;24.642;2022-10-22T23:32:03;9.80;;;5.00;;
37771;SDS011;23610;59.380;24.642;2022-10-22T23:37:09;6.47;;;4.07;;
37771;SDS011;23610;59.380;24.642;2022-10-22T23:42:13;5.60;;;4.28;;
37771;SDS011;23610;59.380;24.642;2022-10-22T23:47:15;7.13;;;4.55;;
37771;SDS011;23610;59.380;24.642;2022-10-22T23:52:18;9.48;;;4.80;;
37771;SDS011;23610;59.380;24.642;2022-10-22T23:57:21;13.90;;;4.80;;
